SWA3236 KMEM-KBNA
Flight info
| Callsign | SWA3236 |
|---|---|
| Flight time | 0h 41m |
| Altitude | 25000 |
| Route | GOETZ7 DIYAB KNEEY CHSNE3 |
| Aircraft | B38M/M-SADE2E3GHIJ4J7P2RWZ/LB1D1 |
Departure
| Time | 2026-05-05 23:42 |
|---|---|
| Airport | Memphis International Airport (KMEM) |
Arrival
| Time | 2026-05-06 00:24 |
|---|---|
| Airport | Nashville International Airport (KBNA) |
| Time | Latitude | Longitude | Altitude | Speed | Heading |
|---|---|---|---|---|---|
| 2026-05-05 23:19 | 35.04101 | -89.97913 | 315 ft | 0 kts | 265° |
| 2026-05-05 23:30 | 35.04103 | -89.97899 | 314 ft | 4 kts | 265° |
| 2026-05-05 23:30 | 35.04101 | -89.97878 | 170 ft | 4 kts | 286° |
| 2026-05-05 23:31 | 35.04088 | -89.97851 | 314 ft | 4 kts | 323° |
| 2026-05-05 23:31 | 35.04064 | -89.97839 | 315 ft | 4 kts | 353° |
| 2026-05-05 23:31 | 35.04051 | -89.97838 | 316 ft | 1 kts | 360° |
| 2026-05-05 23:31 | 35.04049 | -89.97838 | 316 ft | 0 kts | 360° |
| 2026-05-05 23:35 | 35.04072 | -89.97837 | 316 ft | 8 kts | 0° |
| 2026-05-05 23:36 | 35.04133 | -89.97837 | 316 ft | 9 kts | 1° |
| 2026-05-05 23:36 | 35.04184 | -89.97807 | 316 ft | 7 kts | 50° |
| 2026-05-05 23:36 | 35.04204 | -89.97759 | 315 ft | 6 kts | 59° |
| 2026-05-05 23:36 | 35.04217 | -89.97743 | 315 ft | 2 kts | 19° |
| 2026-05-05 23:37 | 35.04269 | -89.97743 | 312 ft | 13 kts | 360° |
| 2026-05-05 23:37 | 35.04370 | -89.97745 | 311 ft | 15 kts | 359° |
| 2026-05-05 23:37 | 35.04478 | -89.97748 | 308 ft | 16 kts | 359° |
| 2026-05-05 23:37 | 35.04596 | -89.97749 | 302 ft | 18 kts | 359° |
| 2026-05-05 23:38 | 35.04731 | -89.97753 | 295 ft | 21 kts | 358° |
| 2026-05-05 23:38 | 35.04876 | -89.97748 | 294 ft | 21 kts | 356° |
| 2026-05-05 23:38 | 35.05017 | -89.97758 | 288 ft | 21 kts | 358° |
| 2026-05-05 23:38 | 35.05168 | -89.97761 | 286 ft | 21 kts | 359° |
| 2026-05-05 23:39 | 35.05294 | -89.97766 | 286 ft | 17 kts | 355° |
| 2026-05-05 23:39 | 35.05396 | -89.97778 | 285 ft | 13 kts | 4° |
| 2026-05-05 23:39 | 35.05438 | -89.97742 | 289 ft | 0 kts | 63° |
| 2026-05-05 23:41 | 35.05443 | -89.97717 | 285 ft | 9 kts | 83° |
| 2026-05-05 23:41 | 35.05427 | -89.97634 | 288 ft | 9 kts | 140° |
| 2026-05-05 23:41 | 35.05358 | -89.97616 | 287 ft | 16 kts | 179° |
| 2026-05-05 23:42 | 35.05131 | -89.97612 | 286 ft | 66 kts | 179° |
| 2026-05-05 23:42 | 35.04402 | -89.97597 | 310 ft | 139 kts | 179° |
| 2026-05-05 23:42 | 35.03300 | -89.97553 | 739 ft | 169 kts | 177° |
| 2026-05-05 23:42 | 35.02233 | -89.97675 | 1949 ft | 146 kts | 191° |
| 2026-05-05 23:43 | 35.01227 | -89.97874 | 2723 ft | 155 kts | 189° |
| 2026-05-05 23:43 | 35.00077 | -89.98036 | 3305 ft | 179 kts | 190° |
| 2026-05-05 23:43 | 34.98692 | -89.98047 | 3533 ft | 225 kts | 173° |
| 2026-05-05 23:43 | 34.97215 | -89.97274 | 4068 ft | 239 kts | 159° |
| 2026-05-05 23:44 | 34.95678 | -89.96342 | 4872 ft | 255 kts | 158° |
| 2026-05-05 23:44 | 34.94151 | -89.95126 | 5756 ft | 273 kts | 139° |
| 2026-05-05 23:44 | 34.93135 | -89.93138 | 6732 ft | 288 kts | 112° |
| 2026-05-05 23:44 | 34.92848 | -89.90664 | 7687 ft | 299 kts | 94° |
| 2026-05-05 23:45 | 34.92749 | -89.88113 | 8647 ft | 305 kts | 94° |
| 2026-05-05 23:45 | 34.92659 | -89.85508 | 9578 ft | 310 kts | 88° |
| 2026-05-05 23:45 | 34.93156 | -89.82986 | 10473 ft | 315 kts | 63° |
| 2026-05-05 23:45 | 34.94239 | -89.80618 | 11118 ft | 329 kts | 58° |
| 2026-05-05 23:46 | 34.95424 | -89.78120 | 11867 ft | 341 kts | 57° |
| 2026-05-05 23:46 | 34.96585 | -89.75685 | 12638 ft | 350 kts | 58° |
| 2026-05-05 23:46 | 34.97838 | -89.73017 | 13600 ft | 355 kts | 58° |
| 2026-05-05 23:46 | 34.99037 | -89.70466 | 14485 ft | 360 kts | 58° |
| 2026-05-05 23:47 | 35.00297 | -89.67788 | 15430 ft | 365 kts | 57° |
| 2026-05-05 23:47 | 35.01605 | -89.65005 | 16333 ft | 371 kts | 57° |
| 2026-05-05 23:47 | 35.02858 | -89.62340 | 17167 ft | 376 kts | 57° |
| 2026-05-05 23:47 | 35.04170 | -89.59542 | 17965 ft | 382 kts | 57° |
| 2026-05-05 23:48 | 35.05514 | -89.56677 | 18773 ft | 386 kts | 57° |
| 2026-05-05 23:48 | 35.06857 | -89.53811 | 19526 ft | 392 kts | 57° |
| 2026-05-05 23:48 | 35.08195 | -89.50952 | 20224 ft | 397 kts | 57° |
| 2026-05-05 23:48 | 35.09580 | -89.47993 | 20916 ft | 402 kts | 57° |
| 2026-05-05 23:49 | 35.10994 | -89.44969 | 21616 ft | 407 kts | 57° |
| 2026-05-05 23:49 | 35.12402 | -89.41952 | 22262 ft | 412 kts | 56° |
| 2026-05-05 23:49 | 35.13832 | -89.38887 | 22885 ft | 417 kts | 56° |
| 2026-05-05 23:49 | 35.15276 | -89.35792 | 23511 ft | 422 kts | 56° |
| 2026-05-05 23:50 | 35.16737 | -89.32654 | 24124 ft | 426 kts | 56° |
| 2026-05-05 23:50 | 35.18209 | -89.29490 | 24635 ft | 432 kts | 56° |
| 2026-05-05 23:50 | 35.19704 | -89.26276 | 24782 ft | 441 kts | 56° |
| 2026-05-05 23:50 | 35.21227 | -89.22950 | 24788 ft | 453 kts | 59° |
| 2026-05-05 23:51 | 35.22324 | -89.19297 | 24817 ft | 463 kts | 70° |
| 2026-05-05 23:51 | 35.23291 | -89.15537 | 24821 ft | 464 kts | 69° |
| 2026-05-05 23:51 | 35.24285 | -89.11790 | 24838 ft | 462 kts | 66° |
| 2026-05-05 23:51 | 35.25538 | -89.08182 | 24862 ft | 460 kts | 62° |
| 2026-05-05 23:52 | 35.26814 | -89.04654 | 24855 ft | 460 kts | 62° |
| 2026-05-05 23:52 | 35.28114 | -89.01072 | 24860 ft | 460 kts | 62° |
| 2026-05-05 23:52 | 35.29411 | -88.97499 | 24861 ft | 460 kts | 62° |
| 2026-05-05 23:52 | 35.30708 | -88.93923 | 24849 ft | 460 kts | 62° |
| 2026-05-05 23:53 | 35.32004 | -88.90349 | 24863 ft | 460 kts | 62° |
| 2026-05-05 23:53 | 35.33303 | -88.86760 | 24854 ft | 460 kts | 62° |
| 2026-05-05 23:53 | 35.34597 | -88.83184 | 24859 ft | 460 kts | 62° |
| 2026-05-05 23:53 | 35.35893 | -88.79595 | 24854 ft | 460 kts | 62° |
| 2026-05-05 23:54 | 35.37184 | -88.76016 | 24860 ft | 460 kts | 62° |
| 2026-05-05 23:54 | 35.38475 | -88.72433 | 24857 ft | 460 kts | 62° |
| 2026-05-05 23:54 | 35.39766 | -88.68847 | 24860 ft | 460 kts | 62° |
| 2026-05-05 23:54 | 35.41054 | -88.65266 | 24851 ft | 460 kts | 62° |
| 2026-05-05 23:55 | 35.42343 | -88.61676 | 24860 ft | 460 kts | 62° |
| 2026-05-05 23:55 | 35.43615 | -88.58132 | 24851 ft | 460 kts | 62° |
| 2026-05-05 23:55 | 35.44899 | -88.54548 | 24863 ft | 460 kts | 62° |
| 2026-05-05 23:55 | 35.46183 | -88.50961 | 24849 ft | 460 kts | 62° |
| 2026-05-05 23:56 | 35.47469 | -88.47365 | 24853 ft | 460 kts | 62° |
| 2026-05-05 23:56 | 35.48754 | -88.43767 | 24859 ft | 460 kts | 62° |
| 2026-05-05 23:56 | 35.50037 | -88.40170 | 24860 ft | 460 kts | 62° |
| 2026-05-05 23:56 | 35.51316 | -88.36581 | 24858 ft | 460 kts | 62° |
| 2026-05-05 23:57 | 35.52598 | -88.32978 | 24852 ft | 460 kts | 62° |
| 2026-05-05 23:57 | 35.53876 | -88.29382 | 24857 ft | 460 kts | 62° |
| 2026-05-05 23:57 | 35.55153 | -88.25786 | 24854 ft | 460 kts | 62° |
| 2026-05-05 23:57 | 35.56432 | -88.22180 | 24864 ft | 460 kts | 62° |
| 2026-05-05 23:58 | 35.57706 | -88.18582 | 24861 ft | 460 kts | 62° |
| 2026-05-05 23:58 | 35.58981 | -88.14978 | 24849 ft | 460 kts | 62° |
| 2026-05-05 23:58 | 35.60256 | -88.11372 | 24866 ft | 460 kts | 62° |
| 2026-05-05 23:58 | 35.61515 | -88.07807 | 24752 ft | 449 kts | 62° |
| 2026-05-05 23:59 | 35.62740 | -88.04330 | 24406 ft | 441 kts | 62° |
| 2026-05-05 23:59 | 35.63941 | -88.00921 | 23874 ft | 438 kts | 63° |
| 2026-05-05 23:59 | 35.65144 | -87.97500 | 23341 ft | 436 kts | 63° |
| 2026-05-05 23:59 | 35.66346 | -87.94083 | 22817 ft | 433 kts | 63° |
| 2026-05-06 00:00 | 35.67521 | -87.90735 | 22309 ft | 430 kts | 63° |
| 2026-05-06 00:00 | 35.68713 | -87.87336 | 21805 ft | 427 kts | 63° |
| 2026-05-06 00:00 | 35.69886 | -87.83988 | 21311 ft | 424 kts | 63° |
| 2026-05-06 00:00 | 35.71043 | -87.80681 | 20833 ft | 420 kts | 63° |
| 2026-05-06 00:01 | 35.72193 | -87.77392 | 20363 ft | 415 kts | 64° |
| 2026-05-06 00:01 | 35.73326 | -87.74146 | 19901 ft | 412 kts | 64° |
| 2026-05-06 00:01 | 35.74448 | -87.70927 | 19456 ft | 407 kts | 65° |
| 2026-05-06 00:01 | 35.75539 | -87.67797 | 19023 ft | 403 kts | 65° |
| 2026-05-06 00:02 | 35.76655 | -87.64591 | 18587 ft | 398 kts | 65° |
| 2026-05-06 00:02 | 35.77734 | -87.61489 | 18171 ft | 390 kts | 65° |
| 2026-05-06 00:02 | 35.78797 | -87.58432 | 17756 ft | 386 kts | 65° |
| 2026-05-06 00:02 | 35.79830 | -87.55459 | 17412 ft | 381 kts | 65° |
| 2026-05-06 00:03 | 35.80865 | -87.52474 | 17053 ft | 375 kts | 65° |
| 2026-05-06 00:03 | 35.81883 | -87.49540 | 16674 ft | 371 kts | 65° |
| 2026-05-06 00:03 | 35.82901 | -87.46628 | 16223 ft | 369 kts | 65° |
| 2026-05-06 00:03 | 35.83921 | -87.43734 | 15845 ft | 366 kts | 65° |
| 2026-05-06 00:04 | 35.84928 | -87.40874 | 15473 ft | 363 kts | 65° |
| 2026-05-06 00:04 | 35.85941 | -87.37997 | 15076 ft | 368 kts | 65° |
| 2026-05-06 00:04 | 35.86940 | -87.35154 | 14693 ft | 371 kts | 65° |
| 2026-05-06 00:04 | 35.87986 | -87.32175 | 14309 ft | 371 kts | 65° |
| 2026-05-06 00:05 | 35.90026 | -87.26356 | 13524 ft | 367 kts | 65° |
| 2026-05-06 00:05 | 35.91036 | -87.23474 | 13132 ft | 366 kts | 66° |
| 2026-05-06 00:05 | 35.92022 | -87.20656 | 12742 ft | 362 kts | 66° |
| 2026-05-06 00:06 | 35.93032 | -87.17766 | 12354 ft | 358 kts | 66° |
| 2026-05-06 00:06 | 35.93996 | -87.15004 | 11975 ft | 354 kts | 66° |
| 2026-05-06 00:06 | 35.94965 | -87.12225 | 11599 ft | 351 kts | 66° |
| 2026-05-06 00:06 | 35.95906 | -87.09525 | 11232 ft | 347 kts | 66° |
| 2026-05-06 00:07 | 35.96870 | -87.06757 | 10888 ft | 342 kts | 66° |
| 2026-05-06 00:07 | 35.97795 | -87.04101 | 10737 ft | 332 kts | 66° |
| 2026-05-06 00:07 | 35.98688 | -87.01533 | 10588 ft | 316 kts | 66° |
| 2026-05-06 00:07 | 35.99528 | -86.99112 | 10458 ft | 298 kts | 66° |
| 2026-05-06 00:08 | 36.00332 | -86.96798 | 10333 ft | 289 kts | 66° |
| 2026-05-06 00:08 | 36.01117 | -86.94536 | 10199 ft | 288 kts | 66° |
| 2026-05-06 00:08 | 36.01921 | -86.92214 | 10058 ft | 297 kts | 66° |
| 2026-05-06 00:08 | 36.02739 | -86.89853 | 9868 ft | 301 kts | 66° |
| 2026-05-06 00:09 | 36.03547 | -86.87519 | 9618 ft | 300 kts | 67° |
| 2026-05-06 00:09 | 36.04369 | -86.85140 | 9512 ft | 293 kts | 67° |
| 2026-05-06 00:09 | 36.05329 | -86.82940 | 9257 ft | 291 kts | 49° |
| 2026-05-06 00:09 | 36.06900 | -86.81462 | 8935 ft | 285 kts | 20° |
| 2026-05-06 00:10 | 36.08768 | -86.80677 | 8691 ft | 280 kts | 15° |
| 2026-05-06 00:10 | 36.10623 | -86.79923 | 8401 ft | 281 kts | 15° |
| 2026-05-06 00:10 | 36.12419 | -86.79203 | 8237 ft | 271 kts | 15° |
| 2026-05-06 00:10 | 36.14151 | -86.78517 | 8105 ft | 259 kts | 15° |
| 2026-05-06 00:11 | 36.15887 | -86.77836 | 8019 ft | 256 kts | 14° |
| 2026-05-06 00:11 | 36.17615 | -86.77185 | 7989 ft | 256 kts | 14° |
| 2026-05-06 00:11 | 36.19267 | -86.76566 | 7981 ft | 259 kts | 13° |
| 2026-05-06 00:11 | 36.21033 | -86.75906 | 7994 ft | 260 kts | 13° |
| 2026-05-06 00:12 | 36.22769 | -86.75254 | 8000 ft | 261 kts | 13° |
| 2026-05-06 00:12 | 36.24503 | -86.74604 | 7931 ft | 262 kts | 13° |
| 2026-05-06 00:12 | 36.26273 | -86.73941 | 7447 ft | 270 kts | 13° |
| 2026-05-06 00:12 | 36.28104 | -86.73257 | 6886 ft | 278 kts | 13° |
| 2026-05-06 00:13 | 36.29960 | -86.72560 | 6333 ft | 279 kts | 13° |
| 2026-05-06 00:13 | 36.31823 | -86.71862 | 5784 ft | 280 kts | 13° |
| 2026-05-06 00:13 | 36.33675 | -86.71167 | 5367 ft | 275 kts | 13° |
| 2026-05-06 00:13 | 36.35501 | -86.70482 | 4898 ft | 274 kts | 13° |
| 2026-05-06 00:14 | 36.37311 | -86.69803 | 4483 ft | 268 kts | 13° |
| 2026-05-06 00:14 | 36.39017 | -86.69161 | 4203 ft | 259 kts | 13° |
| 2026-05-06 00:14 | 36.40778 | -86.68530 | 3986 ft | 251 kts | 6° |
| 2026-05-06 00:14 | 36.42478 | -86.68122 | 3993 ft | 252 kts | 16° |
| 2026-05-06 00:15 | 36.43891 | -86.66965 | 4028 ft | 252 kts | 50° |
| 2026-05-06 00:15 | 36.44713 | -86.65033 | 4049 ft | 250 kts | 82° |
| 2026-05-06 00:15 | 36.44688 | -86.62939 | 3998 ft | 240 kts | 110° |
| 2026-05-06 00:15 | 36.44184 | -86.60967 | 4019 ft | 240 kts | 115° |
| 2026-05-06 00:16 | 36.43602 | -86.59042 | 4019 ft | 236 kts | 120° |
| 2026-05-06 00:16 | 36.42936 | -86.57191 | 3989 ft | 235 kts | 122° |
| 2026-05-06 00:16 | 36.42255 | -86.55351 | 4000 ft | 234 kts | 124° |
| 2026-05-06 00:16 | 36.41244 | -86.53889 | 3960 ft | 216 kts | 156° |
| 2026-05-06 00:17 | 36.39875 | -86.53411 | 3956 ft | 201 kts | 189° |
| 2026-05-06 00:17 | 36.38544 | -86.53852 | 3999 ft | 199 kts | 205° |
| 2026-05-06 00:17 | 36.37262 | -86.54510 | 4013 ft | 199 kts | 206° |
| 2026-05-06 00:17 | 36.35984 | -86.55167 | 3994 ft | 199 kts | 206° |
| 2026-05-06 00:18 | 36.34731 | -86.55794 | 3984 ft | 190 kts | 205° |
| 2026-05-06 00:18 | 36.33526 | -86.56418 | 3978 ft | 187 kts | 206° |
| 2026-05-06 00:18 | 36.32338 | -86.57035 | 3728 ft | 182 kts | 206° |
| 2026-05-06 00:18 | 36.31180 | -86.57618 | 3399 ft | 178 kts | 205° |
| 2026-05-06 00:19 | 36.30055 | -86.58188 | 3118 ft | 170 kts | 205° |
| 2026-05-06 00:19 | 36.28994 | -86.58782 | 3014 ft | 166 kts | 210° |
| 2026-05-06 00:19 | 36.28006 | -86.59479 | 2893 ft | 164 kts | 214° |
| 2026-05-06 00:19 | 36.27017 | -86.60201 | 2738 ft | 160 kts | 208° |
| 2026-05-06 00:20 | 36.26046 | -86.60733 | 2568 ft | 151 kts | 205° |
| 2026-05-06 00:20 | 36.25089 | -86.61179 | 2460 ft | 146 kts | 202° |
| 2026-05-06 00:20 | 36.24106 | -86.61602 | 2239 ft | 153 kts | 199° |
| 2026-05-06 00:20 | 36.23100 | -86.62013 | 2054 ft | 152 kts | 198° |
| 2026-05-06 00:21 | 36.22111 | -86.62413 | 1953 ft | 147 kts | 197° |
| 2026-05-06 00:21 | 36.21161 | -86.62797 | 1862 ft | 141 kts | 196° |
| 2026-05-06 00:21 | 36.20248 | -86.63164 | 1718 ft | 134 kts | 196° |
| 2026-05-06 00:21 | 36.19374 | -86.63501 | 1540 ft | 130 kts | 197° |
| 2026-05-06 00:22 | 36.18516 | -86.63851 | 1527 ft | 131 kts | 197° |
| 2026-05-06 00:22 | 36.17957 | -86.64087 | 1439 ft | 130 kts | 198° |
| 2026-05-06 00:22 | 36.17090 | -86.64437 | 1266 ft | 130 kts | 196° |
| 2026-05-06 00:22 | 36.16227 | -86.64774 | 1133 ft | 130 kts | 198° |
| 2026-05-06 00:23 | 36.15364 | -86.65144 | 1009 ft | 131 kts | 197° |
| 2026-05-06 00:23 | 36.14195 | -86.65597 | 776 ft | 136 kts | 198° |
| 2026-05-06 00:23 | 36.13306 | -86.65956 | 577 ft | 130 kts | 197° |
| 2026-05-06 00:23 | 36.12595 | -86.66238 | 573 ft | 73 kts | 197° |
| 2026-05-06 00:24 | 36.12358 | -86.66331 | 575 ft | 35 kts | 198° |
| 2026-05-06 00:24 | 36.12070 | -86.66474 | 582 ft | 31 kts | 226° |
| 2026-05-06 00:24 | 36.12054 | -86.66551 | 584 ft | 0 kts | 291° |
| 2026-05-06 00:26 | 36.12054 | -86.66553 | 584 ft | 2 kts | 291° |
| 2026-05-06 00:26 | 36.12056 | -86.66560 | 585 ft | 0 kts | 291° |
| 2026-05-06 00:27 | 36.12059 | -86.66562 | 584 ft | 2 kts | 324° |
| 2026-05-06 00:27 | 36.12098 | -86.66569 | 583 ft | 9 kts | 356° |
| 2026-05-06 00:27 | 36.12183 | -86.66552 | 579 ft | 16 kts | 357° |
| 2026-05-06 00:27 | 36.12225 | -86.66600 | 578 ft | 5 kts | 289° |
| 2026-05-06 00:28 | 36.12230 | -86.66623 | 586 ft | 1 kts | 285° |
| 2026-05-06 00:28 | 36.12245 | -86.66683 | 584 ft | 14 kts | 290° |
| 2026-05-06 00:28 | 36.12279 | -86.66811 | 587 ft | 14 kts | 291° |
| 2026-05-06 00:28 | 36.12334 | -86.66927 | 586 ft | 17 kts | 305° |
| 2026-05-06 00:29 | 36.12431 | -86.66985 | 587 ft | 13 kts | 20° |
| 2026-05-06 00:29 | 36.12527 | -86.66924 | 583 ft | 17 kts | 28° |
| 2026-05-06 00:29 | 36.12623 | -86.66904 | 581 ft | 9 kts | 3° |
| 2026-05-06 00:29 | 36.12646 | -86.66909 | 584 ft | 0 kts | 349° |
| 2026-05-06 00:30 | 36.12653 | -86.66907 | 580 ft | 3 kts | 12° |
| 2026-05-06 00:30 | 36.12697 | -86.66894 | 579 ft | 5 kts | 6° |
| 2026-05-06 00:30 | 36.12716 | -86.66903 | 582 ft | 2 kts | 333° |
| 2026-05-06 00:30 | 36.12726 | -86.66903 | 581 ft | 1 kts | 5° |
| 2026-05-06 00:31 | 36.12727 | -86.66903 | 581 ft | 0 kts | 7° |